sensor_id;sensor_type;location;lat;lon;timestamp;pressure;altitude;pressure_sealevel;temperature;humidity
47104;BME280;32853;52.164;5.400;2023-05-21T00:00:25;101900.31;;;18.69;73.94
47104;BME280;32853;52.164;5.400;2023-05-21T00:02:50;101895.00;;;18.53;74.37
47104;BME280;32853;52.164;5.400;2023-05-21T00:05:16;101892.44;;;18.36;75.46
47104;BME280;32853;52.164;5.400;2023-05-21T00:07:43;101875.94;;;18.46;74.46
47104;BME280;32853;52.164;5.400;2023-05-21T00:10:15;101886.78;;;18.57;74.28
47104;BME280;32853;52.164;5.400;2023-05-21T00:12:41;101888.44;;;18.44;74.74
47104;BME280;32853;52.164;5.400;2023-05-21T00:15:06;101869.28;;;18.55;75.05
47104;BME280;32853;52.164;5.400;2023-05-21T00:17:32;101894.16;;;18.52;75.38
47104;BME280;32853;52.164;5.400;2023-05-21T00:20:10;101898.22;;;18.26;77.79
47104;BME280;32853;52.164;5.400;2023-05-21T00:22:39;101854.53;;;18.19;76.98
47104;BME280;32853;52.164;5.400;2023-05-21T00:25:07;101899.75;;;18.62;75.20
47104;BME280;32853;52.164;5.400;2023-05-21T00:27:36;101860.66;;;18.51;75.10
47104;BME280;32853;52.164;5.400;2023-05-21T00:30:02;101831.38;;;18.23;75.00
47104;BME280;32853;52.164;5.400;2023-05-21T00:32:33;101878.00;;;18.41;76.09
47104;BME280;32853;52.164;5.400;2023-05-21T00:35:03;101867.94;;;18.32;76.96
47104;BME280;32853;52.164;5.400;2023-05-21T00:37:28;101819.66;;;18.11;76.54
47104;BME280;32853;52.164;5.400;2023-05-21T00:39:59;101825.53;;;18.16;77.24
47104;BME280;32853;52.164;5.400;2023-05-21T00:42:26;101889.69;;;18.37;77.65
47104;BME280;32853;52.164;5.400;2023-05-21T00:44:57;101878.59;;;18.31;78.92
47104;BME280;32853;52.164;5.400;2023-05-21T00:47:27;101856.91;;;18.08;79.06
47104;BME280;32853;52.164;5.400;2023-05-21T00:49:54;101831.59;;;17.54;83.58
47104;BME280;32853;52.164;5.400;2023-05-21T00:52:21;101854.75;;;17.99;81.23
47104;BME280;32853;52.164;5.400;2023-05-21T00:54:48;101820.03;;;17.72;82.08
47104;BME280;32853;52.164;5.400;2023-05-21T00:57:17;101846.63;;;18.02;81.31
47104;BME280;32853;52.164;5.400;2023-05-21T00:59:46;101867.16;;;18.30;81.06
47104;BME280;32853;52.164;5.400;2023-05-21T01:02:23;101861.78;;;18.32;80.06
47104;BME280;32853;52.164;5.400;2023-05-21T01:07:49;101826.16;;;17.90;81.82
47104;BME280;32853;52.164;5.400;2023-05-21T01:10:15;101821.97;;;17.68;84.65
47104;BME280;32853;52.164;5.400;2023-05-21T01:12:42;101789.09;;;17.41;86.51
47104;BME280;32853;52.164;5.400;2023-05-21T01:15:08;101856.63;;;18.13;83.66
47104;BME280;32853;52.164;5.400;2023-05-21T01:17:35;101851.59;;;18.24;82.92
47104;BME280;32853;52.164;5.400;2023-05-21T01:20:05;101846.22;;;18.41;81.78
47104;BME280;32853;52.164;5.400;2023-05-21T01:22:46;101809.41;;;18.05;82.13
47104;BME280;32853;52.164;5.400;2023-05-21T01:25:23;101837.78;;;18.19;82.97
47104;BME280;32853;52.164;5.400;2023-05-21T01:27:50;101847.44;;;18.20;84.76
47104;BME280;32853;52.164;5.400;2023-05-21T01:30:22;101810.44;;;17.87;84.64
47104;BME280;32853;52.164;5.400;2023-05-21T01:33:06;101850.56;;;18.26;84.07
47104;BME280;32853;52.164;5.400;2023-05-21T01:36:08;101845.38;;;18.09;84.81
47104;BME280;32853;52.164;5.400;2023-05-21T01:38:59;101837.13;;;17.82;87.80
47104;BME280;32853;52.164;5.400;2023-05-21T01:41:28;101824.03;;;17.96;85.91
47104;BME280;32853;52.164;5.400;2023-05-21T01:43:57;101843.13;;;18.17;84.04
47104;BME280;32853;52.164;5.400;2023-05-21T01:46:25;101802.59;;;17.68;86.42
47104;BME280;32853;52.164;5.400;2023-05-21T01:48:52;101846.53;;;17.55;89.24
47104;BME280;32853;52.164;5.400;2023-05-21T01:51:19;101852.03;;;17.50;91.13
47104;BME280;32853;52.164;5.400;2023-05-21T01:53:44;101802.91;;;17.46;89.01
47104;BME280;32853;52.164;5.400;2023-05-21T01:56:09;101845.97;;;17.65;90.05
47104;BME280;32853;52.164;5.400;2023-05-21T01:58:35;101851.16;;;17.67;90.46
47104;BME280;32853;52.164;5.400;2023-05-21T02:01:01;101838.81;;;17.50;92.46
47104;BME280;32853;52.164;5.400;2023-05-21T02:03:27;101844.66;;;17.57;93.77
47104;BME280;32853;52.164;5.400;2023-05-21T02:05:54;101845.16;;;17.81;91.36
47104;BME280;32853;52.164;5.400;2023-05-21T02:08:23;101818.59;;;17.49;92.26
47104;BME280;32853;52.164;5.400;2023-05-21T02:10:49;101831.91;;;17.48;94.92
47104;BME280;32853;52.164;5.400;2023-05-21T02:13:15;101839.66;;;17.68;93.57
47104;BME280;32853;52.164;5.400;2023-05-21T02:15:44;101797.50;;;17.32;93.87
47104;BME280;32853;52.164;5.400;2023-05-21T02:18:09;101829.16;;;17.66;92.40
47104;BME280;32853;52.164;5.400;2023-05-21T02:20:35;101800.09;;;17.49;93.17
47104;BME280;32853;52.164;5.400;2023-05-21T02:23:02;101820.41;;;17.49;94.73
47104;BME280;32853;52.164;5.400;2023-05-21T02:25:28;101831.84;;;17.82;92.88
47104;BME280;32853;52.164;5.400;2023-05-21T02:27:53;101828.09;;;17.53;95.40
47104;BME280;32853;52.164;5.400;2023-05-21T02:30:20;101795.63;;;17.34;94.87
47104;BME280;32853;52.164;5.400;2023-05-21T02:32:46;101806.94;;;17.53;94.59
47104;BME280;32853;52.164;5.400;2023-05-21T02:35:12;101829.34;;;17.46;96.67
47104;BME280;32853;52.164;5.400;2023-05-21T02:37:39;101832.66;;;17.34;100.00
47104;BME280;32853;52.164;5.400;2023-05-21T02:40:22;101834.69;;;17.11;100.00
47104;BME280;32853;52.164;5.400;2023-05-21T02:42:49;101833.88;;;17.44;100.00
47104;BME280;32853;52.164;5.400;2023-05-21T02:45:14;101834.16;;;17.55;100.00
47104;BME280;32853;52.164;5.400;2023-05-21T02:48:02;101834.47;;;17.49;100.00
47104;BME280;32853;52.164;5.400;2023-05-21T02:50:28;101818.78;;;17.29;100.00
47104;BME280;32853;52.164;5.400;2023-05-21T02:53:10;101831.66;;;17.19;100.00
47104;BME280;32853;52.164;5.400;2023-05-21T02:55:36;101833.97;;;17.25;100.00
47104;BME280;32853;52.164;5.400;2023-05-21T02:58:01;101806.09;;;17.02;100.00
47104;BME280;32853;52.164;5.400;2023-05-21T03:00:27;101835.06;;;17.21;100.00
47104;BME280;32853;52.164;5.400;2023-05-21T03:02:54;101840.28;;;17.23;100.00
47104;BME280;32853;52.164;5.400;2023-05-21T03:05:20;101833.59;;;17.16;100.00
47104;BME280;32853;52.164;5.400;2023-05-21T03:07:46;101829.59;;;17.41;100.00
47104;BME280;32853;52.164;5.400;2023-05-21T03:10:11;101830.13;;;16.98;100.00
47104;BME280;32853;52.164;5.400;2023-05-21T03:12:36;101789.22;;;17.05;100.00
47104;BME280;32853;52.164;5.400;2023-05-21T03:15:02;101812.13;;;17.22;100.00
47104;BME280;32853;52.164;5.400;2023-05-21T03:17:29;101787.88;;;17.13;100.00
47104;BME280;32853;52.164;5.400;2023-05-21T03:20:04;101822.28;;;17.47;100.00
47104;BME280;32853;52.164;5.400;2023-05-21T03:22:33;101836.72;;;17.57;100.00
47104;BME280;32853;52.164;5.400;2023-05-21T03:24:59;101818.59;;;17.49;100.00
47104;BME280;32853;52.164;5.400;2023-05-21T03:27:27;101819.03;;;17.41;100.00
47104;BME280;32853;52.164;5.400;2023-05-21T03:30:01;101809.53;;;17.37;100.00
47104;BME280;32853;52.164;5.400;2023-05-21T03:32:33;101818.19;;;17.41;100.00
47104;BME280;32853;52.164;5.400;2023-05-21T03:35:06;101797.78;;;17.10;100.00
47104;BME280;32853;52.164;5.400;2023-05-21T03:37:39;101819.13;;;17.23;100.00
47104;BME280;32853;52.164;5.400;2023-05-21T03:40:06;101803.91;;;17.10;100.00
47104;BME280;32853;52.164;5.400;2023-05-21T03:42:31;101786.34;;;16.92;100.00
47104;BME280;32853;52.164;5.400;2023-05-21T03:44:57;101799.00;;;17.03;100.00
47104;BME280;32853;52.164;5.400;2023-05-21T03:47:22;101806.97;;;16.86;100.00
47104;BME280;32853;52.164;5.400;2023-05-21T03:49:47;101804.63;;;16.79;100.00
47104;BME280;32853;52.164;5.400;2023-05-21T03:52:25;101816.50;;;16.88;100.00
47104;BME280;32853;52.164;5.400;2023-05-21T03:54:57;101766.09;;;16.75;100.00
47104;BME280;32853;52.164;5.400;2023-05-21T03:57:27;101762.72;;;16.54;100.00
47104;BME280;32853;52.164;5.400;2023-05-21T04:00:11;101805.69;;;16.93;100.00
47104;BME280;32853;52.164;5.400;2023-05-21T04:02:36;101798.53;;;16.95;100.00
47104;BME280;32853;52.164;5.400;2023-05-21T04:05:01;101811.06;;;17.08;100.00
47104;BME280;32853;52.164;5.400;2023-05-21T04:07:27;101801.22;;;17.28;100.00
47104;BME280;32853;52.164;5.400;2023-05-21T04:09:54;101816.41;;;17.24;100.00
47104;BME280;32853;52.164;5.400;2023-05-21T04:12:20;101810.91;;;16.77;100.00
47104;BME280;32853;52.164;5.400;2023-05-21T04:14:46;101771.56;;;16.53;100.00
47104;BME280;32853;52.164;5.400;2023-05-21T04:17:11;101821.78;;;16.88;100.00
47104;BME280;32853;52.164;5.400;2023-05-21T04:19:38;101777.50;;;16.76;100.00
47104;BME280;32853;52.164;5.400;2023-05-21T04:22:04;101798.72;;;17.09;100.00
47104;BME280;32853;52.164;5.400;2023-05-21T04:24:30;101818.59;;;17.16;100.00
47104;BME280;32853;52.164;5.400;2023-05-21T04:26:55;101755.47;;;16.58;100.00
47104;BME280;32853;52.164;5.400;2023-05-21T04:29:26;101807.94;;;16.83;100.00
47104;BME280;32853;52.164;5.400;2023-05-21T04:31:55;101800.19;;;16.80;100.00
47104;BME280;32853;52.164;5.400;2023-05-21T04:34:21;101814.63;;;16.90;100.00
47104;BME280;32853;52.164;5.400;2023-05-21T04:36:48;101815.72;;;17.03;100.00
47104;BME280;32853;52.164;5.400;2023-05-21T04:39:14;101819.00;;;16.91;100.00
47104;BME280;32853;52.164;5.400;2023-05-21T04:41:40;101831.97;;;16.96;100.00
47104;BME280;32853;52.164;5.400;2023-05-21T04:44:16;101819.44;;;16.82;100.00
47104;BME280;32853;52.164;5.400;2023-05-21T04:46:45;101815.09;;;16.81;100.00
47104;BME280;32853;52.164;5.400;2023-05-21T04:49:10;101807.41;;;16.76;100.00
47104;BME280;32853;52.164;5.400;2023-05-21T04:51:42;101820.06;;;16.70;100.00
47104;BME280;32853;52.164;5.400;2023-05-21T04:54:22;101822.78;;;16.68;100.00
47104;BME280;32853;52.164;5.400;2023-05-21T04:56:54;101803.69;;;16.44;100.00
47104;BME280;32853;52.164;5.400;2023-05-21T04:59:21;101779.41;;;16.55;100.00
47104;BME280;32853;52.164;5.400;2023-05-21T05:01:47;101821.97;;;16.66;100.00
47104;BME280;32853;52.164;5.400;2023-05-21T05:04:12;101821.25;;;16.45;100.00
47104;BME280;32853;52.164;5.400;2023-05-21T05:06:37;101781.97;;;16.56;100.00
47104;BME280;32853;52.164;5.400;2023-05-21T05:09:10;101818.50;;;16.83;100.00
47104;BME280;32853;52.164;5.400;2023-05-21T05:11:46;101821.47;;;16.77;100.00
47104;BME280;32853;52.164;5.400;2023-05-21T05:14:11;101825.34;;;16.51;100.00
47104;BME280;32853;52.164;5.400;2023-05-21T05:16:37;101806.94;;;16.32;100.00
47104;BME280;32853;52.164;5.400;2023-05-21T05:19:04;101827.13;;;16.69;100.00
47104;BME280;32853;52.164;5.400;2023-05-21T05:21:29;101833.22;;;16.89;100.00
47104;BME280;32853;52.164;5.400;2023-05-21T05:23:55;101818.75;;;16.78;100.00
47104;BME280;32853;52.164;5.400;2023-05-21T05:26:30;101819.41;;;16.65;100.00
47104;BME280;32853;52.164;5.400;2023-05-21T05:28:55;101815.63;;;16.70;100.00
47104;BME280;32853;52.164;5.400;2023-05-21T05:31:23;101758.81;;;16.44;100.00
47104;BME280;32853;52.164;5.400;2023-05-21T05:33:48;101757.31;;;16.39;100.00
47104;BME280;32853;52.164;5.400;2023-05-21T05:36:13;101814.50;;;16.57;100.00
47104;BME280;32853;52.164;5.400;2023-05-21T05:38:53;101789.34;;;16.67;100.00
47104;BME280;32853;52.164;5.400;2023-05-21T05:41:18;101820.69;;;16.39;100.00
47104;BME280;32853;52.164;5.400;2023-05-21T05:43:44;101811.94;;;16.55;100.00
47104;BME280;32853;52.164;5.400;2023-05-21T05:46:09;101832.63;;;16.65;100.00
47104;BME280;32853;52.164;5.400;2023-05-21T05:48:35;101822.09;;;16.82;100.00
47104;BME280;32853;52.164;5.400;2023-05-21T05:51:00;101813.50;;;16.60;100.00
47104;BME280;32853;52.164;5.400;2023-05-21T05:53:25;101825.47;;;16.67;100.00
47104;BME280;32853;52.164;5.400;2023-05-21T05:55:51;101792.59;;;16.74;100.00
47104;BME280;32853;52.164;5.400;2023-05-21T05:58:16;101820.72;;;16.56;100.00
47104;BME280;32853;52.164;5.400;2023-05-21T06:00:43;101781.03;;;16.58;100.00
47104;BME280;32853;52.164;5.400;2023-05-21T06:03:08;101802.44;;;16.70;100.00
47104;BME280;32853;52.164;5.400;2023-05-21T06:05:34;101794.50;;;16.70;100.00
47104;BME280;32853;52.164;5.400;2023-05-21T06:07:59;101818.44;;;16.84;100.00
47104;BME280;32853;52.164;5.400;2023-05-21T06:10:25;101814.88;;;17.03;100.00
47104;BME280;32853;52.164;5.400;2023-05-21T06:12:50;101802.53;;;16.86;100.00
47104;BME280;32853;52.164;5.400;2023-05-21T06:15:18;101767.13;;;17.06;100.00
47104;BME280;32853;52.164;5.400;2023-05-21T06:17:43;101810.81;;;17.30;100.00
47104;BME280;32853;52.164;5.400;2023-05-21T06:20:09;101802.84;;;16.97;100.00
47104;BME280;32853;52.164;5.400;2023-05-21T06:22:35;101810.69;;;16.99;100.00
47104;BME280;32853;52.164;5.400;2023-05-21T06:25:14;101804.00;;;16.92;100.00
47104;BME280;32853;52.164;5.400;2023-05-21T06:27:46;101804.41;;;17.34;100.00
47104;BME280;32853;52.164;5.400;2023-05-21T06:30:11;101770.03;;;17.34;100.00
47104;BME280;32853;52.164;5.400;2023-05-21T06:32:40;101809.25;;;17.26;100.00
47104;BME280;32853;52.164;5.400;2023-05-21T06:35:05;101797.91;;;16.72;100.00
47104;BME280;32853;52.164;5.400;2023-05-21T06:37:31;101797.56;;;16.97;100.00
47104;BME280;32853;52.164;5.400;2023-05-21T06:39:58;101803.34;;;17.04;100.00
47104;BME280;32853;52.164;5.400;2023-05-21T06:42:28;101809.31;;;17.25;100.00
47104;BME280;32853;52.164;5.400;2023-05-21T06:44:54;101772.28;;;17.42;100.00
47104;BME280;32853;52.164;5.400;2023-05-21T06:47:20;101790.25;;;17.84;100.00
47104;BME280;32853;52.164;5.400;2023-05-21T06:49:48;101788.16;;;17.42;100.00
47104;BME280;32853;52.164;5.400;2023-05-21T06:52:13;101761.16;;;17.35;100.00
47104;BME280;32853;52.164;5.400;2023-05-21T06:54:38;101734.59;;;17.54;100.00
47104;BME280;32853;52.164;5.400;2023-05-21T06:57:10;101792.50;;;17.43;100.00
47104;BME280;32853;52.164;5.400;2023-05-21T06:59:36;101802.38;;;17.39;100.00
47104;BME280;32853;52.164;5.400;2023-05-21T07:02:05;101756.50;;;17.40;100.00
47104;BME280;32853;52.164;5.400;2023-05-21T07:04:32;101799.16;;;17.50;100.00
47104;BME280;32853;52.164;5.400;2023-05-21T07:07:07;101789.31;;;17.69;100.00
47104;BME280;32853;52.164;5.400;2023-05-21T07:09:32;101791.47;;;17.79;100.00
47104;BME280;32853;52.164;5.400;2023-05-21T07:12:12;101776.63;;;17.76;100.00
47104;BME280;32853;52.164;5.400;2023-05-21T07:14:38;101780.97;;;17.77;100.00
47104;BME280;32853;52.164;5.400;2023-05-21T07:17:03;101785.66;;;17.72;100.00
47104;BME280;32853;52.164;5.400;2023-05-21T07:19:31;101807.13;;;17.66;100.00
47104;BME280;32853;52.164;5.400;2023-05-21T07:22:00;101795.66;;;17.50;100.00
47104;BME280;32853;52.164;5.400;2023-05-21T07:24:32;101794.47;;;18.04;100.00
47104;BME280;32853;52.164;5.400;2023-05-21T07:26:58;101801.19;;;18.41;100.00
47104;BME280;32853;52.164;5.400;2023-05-21T07:29:32;101769.44;;;17.94;100.00
47104;BME280;32853;52.164;5.400;2023-05-21T07:31:57;101781.56;;;18.29;100.00
47104;BME280;32853;52.164;5.400;2023-05-21T07:34:23;101798.28;;;18.46;100.00
47104;BME280;32853;52.164;5.400;2023-05-21T07:36:49;101756.88;;;18.13;100.00
47104;BME280;32853;52.164;5.400;2023-05-21T07:39:14;101804.84;;;18.39;100.00
47104;BME280;32853;52.164;5.400;2023-05-21T07:41:40;101790.38;;;18.60;100.00
47104;BME280;32853;52.164;5.400;2023-05-21T07:44:05;101785.81;;;18.62;100.00
47104;BME280;32853;52.164;5.400;2023-05-21T07:46:33;101796.00;;;18.85;100.00
47104;BME280;32853;52.164;5.400;2023-05-21T07:49:01;101766.44;;;18.32;100.00
47104;BME280;32853;52.164;5.400;2023-05-21T07:51:56;101792.97;;;18.46;100.00
47104;BME280;32853;52.164;5.400;2023-05-21T07:54:21;101772.38;;;18.67;100.00
47104;BME280;32853;52.164;5.400;2023-05-21T07:56:48;101776.19;;;18.61;100.00
47104;BME280;32853;52.164;5.400;2023-05-21T07:59:38;101785.75;;;18.94;100.00
47104;BME280;32853;52.164;5.400;2023-05-21T08:02:03;101779.16;;;18.41;100.00
47104;BME280;32853;52.164;5.400;2023-05-21T08:04:29;101774.56;;;18.58;100.00
47104;BME280;32853;52.164;5.400;2023-05-21T08:07:00;101776.19;;;18.77;100.00
47104;BME280;32853;52.164;5.400;2023-05-21T08:09:26;101779.38;;;18.52;100.00
47104;BME280;32853;52.164;5.400;2023-05-21T08:11:51;101764.03;;;18.43;100.00
47104;BME280;32853;52.164;5.400;2023-05-21T08:14:17;101744.56;;;18.58;100.00
47104;BME280;32853;52.164;5.400;2023-05-21T08:16:42;101757.81;;;18.58;100.00
47104;BME280;32853;52.164;5.400;2023-05-21T08:19:10;101751.19;;;18.95;100.00
47104;BME280;32853;52.164;5.400;2023-05-21T08:21:47;101786.56;;;19.24;100.00
47104;BME280;32853;52.164;5.400;2023-05-21T08:24:12;101712.97;;;19.13;100.00
47104;BME280;32853;52.164;5.400;2023-05-21T08:26:38;101718.28;;;18.55;100.00
47104;BME280;32853;52.164;5.400;2023-05-21T08:29:03;101734.75;;;19.04;100.00
47104;BME280;32853;52.164;5.400;2023-05-21T08:31:28;101758.34;;;19.52;100.00
47104;BME280;32853;52.164;5.400;2023-05-21T08:33:54;101767.34;;;19.78;100.00
47104;BME280;32853;52.164;5.400;2023-05-21T08:36:26;101751.91;;;19.41;100.00
47104;BME280;32853;52.164;5.400;2023-05-21T08:39:00;101770.25;;;19.16;100.00
47104;BME280;32853;52.164;5.400;2023-05-21T08:41:26;101751.72;;;19.30;100.00
47104;BME280;32853;52.164;5.400;2023-05-21T08:43:55;101756.94;;;19.60;100.00
47104;BME280;32853;52.164;5.400;2023-05-21T08:46:31;101762.50;;;19.70;100.00
47104;BME280;32853;52.164;5.400;2023-05-21T08:49:00;101767.47;;;20.03;100.00
47104;BME280;32853;52.164;5.400;2023-05-21T08:51:27;101772.06;;;19.72;100.00
47104;BME280;32853;52.164;5.400;2023-05-21T08:53:53;101779.28;;;19.85;100.00
47104;BME280;32853;52.164;5.400;2023-05-21T08:56:19;101773.28;;;19.95;100.00
47104;BME280;32853;52.164;5.400;2023-05-21T08:58:45;101755.75;;;19.50;100.00
47104;BME280;32853;52.164;5.400;2023-05-21T09:01:11;101778.78;;;19.92;100.00
47104;BME280;32853;52.164;5.400;2023-05-21T09:03:39;101730.34;;;19.89;98.95
47104;BME280;32853;52.164;5.400;2023-05-21T09:06:08;101745.28;;;19.20;100.00
47104;BME280;32853;52.164;5.400;2023-05-21T09:08:37;101768.16;;;19.92;100.00
47104;BME280;32853;52.164;5.400;2023-05-21T09:11:12;101781.69;;;20.02;97.86
47104;BME280;32853;52.164;5.400;2023-05-21T09:13:39;101793.91;;;20.05;98.89
47104;BME280;32853;52.164;5.400;2023-05-21T09:16:05;101774.47;;;20.04;98.00
47104;BME280;32853;52.164;5.400;2023-05-21T09:18:31;101753.91;;;19.66;98.04
47104;BME280;32853;52.164;5.400;2023-05-21T09:20:56;101768.34;;;20.30;95.77
47104;BME280;32853;52.164;5.400;2023-05-21T09:23:22;101768.06;;;20.21;96.21
47104;BME280;32853;52.164;5.400;2023-05-21T09:25:53;101777.75;;;20.22;94.70
47104;BME280;32853;52.164;5.400;2023-05-21T09:28:40;101768.66;;;20.39;94.44
47104;BME280;32853;52.164;5.400;2023-05-21T09:31:05;101774.34;;;20.20;95.71
47104;BME280;32853;52.164;5.400;2023-05-21T09:33:34;101768.34;;;20.70;92.17
47104;BME280;32853;52.164;5.400;2023-05-21T09:36:06;101726.09;;;20.26;93.27
47104;BME280;32853;52.164;5.400;2023-05-21T09:38:41;101768.63;;;20.26;95.77
47104;BME280;32853;52.164;5.400;2023-05-21T09:41:06;101760.84;;;20.23;95.83
47104;BME280;32853;52.164;5.400;2023-05-21T09:43:42;101743.72;;;20.14;96.38
47104;BME280;32853;52.164;5.400;2023-05-21T09:46:10;101748.88;;;20.70;94.62
47104;BME280;32853;52.164;5.400;2023-05-21T09:48:40;101757.09;;;20.79;91.97
47104;BME280;32853;52.164;5.400;2023-05-21T09:51:13;101751.00;;;20.38;94.42
47104;BME280;32853;52.164;5.400;2023-05-21T09:53:55;101746.63;;;20.24;97.16
47104;BME280;32853;52.164;5.400;2023-05-21T09:56:29;101738.81;;;20.87;93.29
47104;BME280;32853;52.164;5.400;2023-05-21T09:59:00;101729.63;;;21.17;91.47
47104;BME280;32853;52.164;5.400;2023-05-21T10:01:31;101732.09;;;21.20;87.83
47104;BME280;32853;52.164;5.400;2023-05-21T10:04:05;101736.13;;;21.38;88.82
47104;BME280;32853;52.164;5.400;2023-05-21T10:06:30;101736.16;;;21.26;87.54
47104;BME280;32853;52.164;5.400;2023-05-21T10:09:01;101719.56;;;21.35;87.97
47104;BME280;32853;52.164;5.400;2023-05-21T10:11:30;101719.66;;;20.82;91.01
47104;BME280;32853;52.164;5.400;2023-05-21T10:14:13;101714.88;;;21.13;88.31
47104;BME280;32853;52.164;5.400;2023-05-21T10:16:42;101714.09;;;21.49;88.60
47104;BME280;32853;52.164;5.400;2023-05-21T10:19:23;101722.09;;;21.24;87.16
47104;BME280;32853;52.164;5.400;2023-05-21T10:21:48;101714.03;;;21.74;82.84
47104;BME280;32853;52.164;5.400;2023-05-21T10:24:17;101673.25;;;21.74;83.44
47104;BME280;32853;52.164;5.400;2023-05-21T10:26:48;101716.13;;;21.45;84.13
47104;BME280;32853;52.164;5.400;2023-05-21T10:29:14;101717.16;;;21.56;84.85
47104;BME280;32853;52.164;5.400;2023-05-21T10:31:51;101707.75;;;21.99;81.05
47104;BME280;32853;52.164;5.400;2023-05-21T10:34:18;101691.34;;;21.32;83.78
47104;BME280;32853;52.164;5.400;2023-05-21T10:36:43;101714.56;;;21.67;82.99
47104;BME280;32853;52.164;5.400;2023-05-21T10:39:11;101718.75;;;21.58;82.07
47104;BME280;32853;52.164;5.400;2023-05-21T10:41:57;101691.69;;;21.88;80.66
47104;BME280;32853;52.164;5.400;2023-05-21T10:48:25;101692.91;;;23.45;73.58
47104;BME280;32853;52.164;5.400;2023-05-21T11:01:31;101664.81;;;22.97;72.66
47104;BME280;32853;52.164;5.400;2023-05-21T11:04:06;101702.88;;;23.21;73.33
47104;BME280;32853;52.164;5.400;2023-05-21T11:06:31;101652.41;;;23.40;72.12
47104;BME280;32853;52.164;5.400;2023-05-21T11:09:13;101592.53;;;23.00;71.18
47104;BME280;32853;52.164;5.400;2023-05-21T11:11:42;101702.13;;;23.64;70.98
47104;BME280;32853;52.164;5.400;2023-05-21T11:14:34;101693.91;;;23.00;71.68
47104;BME280;32853;52.164;5.400;2023-05-21T11:17:12;101680.16;;;23.27;73.25
47104;BME280;32853;52.164;5.400;2023-05-21T11:19:38;101695.47;;;23.25;71.81
47104;BME280;32853;52.164;5.400;2023-05-21T11:24:48;101575.06;;;22.51;72.03
47104;BME280;32853;52.164;5.400;2023-05-21T11:27:30;101644.91;;;23.01;71.29
47104;BME280;32853;52.164;5.400;2023-05-21T11:29:56;101510.03;;;21.96;73.04
47104;BME280;32853;52.164;5.400;2023-05-21T11:32:22;101561.09;;;22.47;71.87
47104;BME280;32853;52.164;5.400;2023-05-21T11:34:51;101630.69;;;23.77;69.90
47104;BME280;32853;52.164;5.400;2023-05-21T11:39:44;101672.59;;;23.76;69.66
47104;BME280;32853;52.164;5.400;2023-05-21T11:42:09;101684.44;;;23.40;70.40
47104;BME280;32853;52.164;5.400;2023-05-21T11:44:40;101662.88;;;23.75;69.72
47104;BME280;32853;52.164;5.400;2023-05-21T11:47:07;101663.97;;;23.84;70.67
47104;BME280;32853;52.164;5.400;2023-05-21T11:49:33;101627.13;;;23.44;70.45
47104;BME280;32853;52.164;5.400;2023-05-21T11:51:59;101610.44;;;23.31;69.72
47104;BME280;32853;52.164;5.400;2023-05-21T11:54:27;101551.13;;;23.48;69.90
47104;BME280;32853;52.164;5.400;2023-05-21T11:57:05;101649.81;;;23.93;69.86
47104;BME280;32853;52.164;5.400;2023-05-21T11:59:31;101647.53;;;23.89;70.32
47104;BME280;32853;52.164;5.400;2023-05-21T12:02:02;101655.78;;;24.18;70.04
47104;BME280;32853;52.164;5.400;2023-05-21T12:04:31;101577.09;;;23.58;68.94
47104;BME280;32853;52.164;5.400;2023-05-21T12:07:04;101639.88;;;24.16;69.08
47104;BME280;32853;52.164;5.400;2023-05-21T12:09:54;101631.06;;;24.67;67.66
47104;BME280;32853;52.164;5.400;2023-05-21T12:12:24;101603.00;;;24.52;66.41
47104;BME280;32853;52.164;5.400;2023-05-21T12:14:51;101632.06;;;24.66;66.30
47104;BME280;32853;52.164;5.400;2023-05-21T12:17:25;101630.22;;;24.97;67.30
47104;BME280;32853;52.164;5.400;2023-05-21T12:19:57;101573.72;;;24.60;65.22
47104;BME280;32853;52.164;5.400;2023-05-21T12:22:24;101612.63;;;24.22;66.00
47104;BME280;32853;52.164;5.400;2023-05-21T12:24:56;101626.47;;;24.48;66.27
47104;BME280;32853;52.164;5.400;2023-05-21T12:27:33;101625.97;;;24.85;66.97
47104;BME280;32853;52.164;5.400;2023-05-21T12:30:01;101617.06;;;25.05;65.52
47104;BME280;32853;52.164;5.400;2023-05-21T12:32:39;101620.13;;;24.49;65.75
47104;BME280;32853;52.164;5.400;2023-05-21T12:35:25;101624.06;;;23.92;68.73
47104;BME280;32853;52.164;5.400;2023-05-21T12:37:59;101637.25;;;24.26;68.63
47104;BME280;32853;52.164;5.400;2023-05-21T12:40:34;101573.19;;;23.94;68.70
47104;BME280;32853;52.164;5.400;2023-05-21T12:43:03;101618.47;;;25.09;65.55
47104;BME280;32853;52.164;5.400;2023-05-21T12:45:30;101559.41;;;24.61;65.03
47104;BME280;32853;52.164;5.400;2023-05-21T12:47:56;101624.69;;;24.89;65.90
47104;BME280;32853;52.164;5.400;2023-05-21T12:50:22;101609.88;;;25.15;65.27
47104;BME280;32853;52.164;5.400;2023-05-21T12:52:52;101459.59;;;24.30;64.28
47104;BME280;32853;52.164;5.400;2023-05-21T12:55:21;101504.56;;;24.86;64.34
47104;BME280;32853;52.164;5.400;2023-05-21T12:58:00;101589.38;;;24.95;63.88
47104;BME280;32853;52.164;5.400;2023-05-21T13:00:35;101606.38;;;25.25;64.09
47104;BME280;32853;52.164;5.400;2023-05-21T13:03:02;101605.69;;;25.32;65.17
47104;BME280;32853;52.164;5.400;2023-05-21T13:05:39;101570.06;;;25.51;64.71
47104;BME280;32853;52.164;5.400;2023-05-21T13:08:05;101620.53;;;25.65;64.42
47104;BME280;32853;52.164;5.400;2023-05-21T13:10:30;101578.38;;;25.58;62.38
47104;BME280;32853;52.164;5.400;2023-05-21T13:12:56;101598.53;;;25.52;63.38
47104;BME280;32853;52.164;5.400;2023-05-21T13:15:21;101615.81;;;25.19;63.51
47104;BME280;32853;52.164;5.400;2023-05-21T13:17:46;101616.38;;;25.23;64.13